createdAt,value
2022-12-04T00:00:53.695Z,2.30
2022-12-04T00:01:55.442Z,2.30
2022-12-04T00:02:57.147Z,2.30
2022-12-04T00:04:01.094Z,2.30
2022-12-04T00:05:05.020Z,2.30
2022-12-04T00:06:18.112Z,2.30
2022-12-04T00:07:19.790Z,2.30
2022-12-04T00:08:21.541Z,2.30
2022-12-04T00:09:23.428Z,2.30
2022-12-04T00:10:25.180Z,2.30
2022-12-04T00:11:29.689Z,2.30
2022-12-04T00:12:31.479Z,2.20
2022-12-04T00:13:34.347Z,2.30
2022-12-04T00:14:54.440Z,2.20
2022-12-04T00:15:59.251Z,2.20
2022-12-04T00:17:01.030Z,2.20
2022-12-04T00:18:02.715Z,2.30
2022-12-04T00:19:05.583Z,2.20
2022-12-04T00:20:07.948Z,2.30
2022-12-04T00:21:12.819Z,2.20
2022-12-04T00:22:14.968Z,2.20
2022-12-04T00:23:16.886Z,2.20
2022-12-04T00:24:18.603Z,2.20
2022-12-04T00:25:20.258Z,2.20
2022-12-04T00:26:25.139Z,2.20
2022-12-04T00:27:26.844Z,2.20
2022-12-04T00:28:28.703Z,2.20
2022-12-04T00:29:30.596Z,2.20
2022-12-04T00:30:32.494Z,2.20
2022-12-04T00:31:34.350Z,2.20
2022-12-04T00:32:36.183Z,2.20
2022-12-04T00:33:37.896Z,2.20
2022-12-04T00:34:39.656Z,2.20
2022-12-04T00:35:41.539Z,2.20
2022-12-04T00:36:43.308Z,2.20
2022-12-04T00:37:45.039Z,2.20
2022-12-04T00:38:47.128Z,2.20
2022-12-04T00:39:48.879Z,2.20
2022-12-04T00:40:51.650Z,2.30
2022-12-04T00:41:53.340Z,2.30
2022-12-04T00:42:55.105Z,2.20
2022-12-04T00:43:57.312Z,2.20
2022-12-04T00:44:59.098Z,2.20
2022-12-04T00:46:00.882Z,2.20
2022-12-04T00:47:02.637Z,2.20
2022-12-04T00:48:04.531Z,2.20
2022-12-04T00:49:06.256Z,2.20
2022-12-04T00:50:08.653Z,2.20
2022-12-04T00:51:13.623Z,2.20
2022-12-04T00:52:15.619Z,2.20
2022-12-04T00:53:17.655Z,2.30
2022-12-04T00:54:19.335Z,2.20
2022-12-04T00:55:21.112Z,2.20
2022-12-04T00:56:25.734Z,2.30
2022-12-04T00:57:27.536Z,2.20
2022-12-04T00:58:29.323Z,2.30
2022-12-04T00:59:31.104Z,2.20
2022-12-04T01:00:32.843Z,2.30
2022-12-04T01:01:34.607Z,2.30
2022-12-04T01:02:36.393Z,2.20
2022-12-04T01:03:39.096Z,2.20
2022-12-04T01:04:40.804Z,2.20
2022-12-04T01:05:45.701Z,2.20
2022-12-04T01:06:47.538Z,2.30
2022-12-04T01:07:49.248Z,2.10
2022-12-04T01:08:52.905Z,2.20
2022-12-04T01:09:54.778Z,2.20
2022-12-04T01:10:56.686Z,2.20
2022-12-04T01:11:58.462Z,2.20
2022-12-04T01:13:00.174Z,2.20
2022-12-04T01:14:02.082Z,2.20
2022-12-04T01:15:04.491Z,2.20
2022-12-04T01:16:06.281Z,2.20
2022-12-04T01:17:08.029Z,2.20
2022-12-04T01:18:11.967Z,2.20
2022-12-04T01:19:13.806Z,2.20
2022-12-04T01:20:16.611Z,2.20
2022-12-04T01:21:19.260Z,2.20
2022-12-04T01:22:20.985Z,2.20
2022-12-04T01:23:22.836Z,2.20
2022-12-04T01:24:24.533Z,2.20
2022-12-04T01:25:26.219Z,2.20
2022-12-04T01:26:28.143Z,2.20
2022-12-04T01:27:29.977Z,2.20
2022-12-04T01:28:31.885Z,2.20
2022-12-04T01:29:33.992Z,2.30
2022-12-04T01:30:35.743Z,2.30
2022-12-04T01:31:37.600Z,2.30
2022-12-04T01:32:39.411Z,2.30
2022-12-04T01:33:42.136Z,2.30
2022-12-04T01:34:44.056Z,2.30
2022-12-04T01:35:53.349Z,2.30
2022-12-04T01:36:55.182Z,2.30
2022-12-04T01:37:56.896Z,2.40
2022-12-04T01:38:58.994Z,2.30
2022-12-04T01:40:00.954Z,2.30
2022-12-04T01:41:03.330Z,2.30
2022-12-04T01:42:05.447Z,2.30
2022-12-04T01:43:12.331Z,2.30
2022-12-04T01:44:21.129Z,2.30
2022-12-04T01:45:28.912Z,2.30
2022-12-04T01:46:30.905Z,2.30
2022-12-04T01:47:32.712Z,2.30
2022-12-04T01:48:50.360Z,2.30
2022-12-04T01:49:52.122Z,2.40
2022-12-04T01:51:02.527Z,2.30
2022-12-04T01:52:22.744Z,2.30
2022-12-04T01:53:25.041Z,2.30
2022-12-04T01:54:31.081Z,2.30
2022-12-04T01:55:32.978Z,2.30
2022-12-04T01:57:29.980Z,2.30
2022-12-04T01:58:34.783Z,2.30
2022-12-04T01:59:43.017Z,2.30
2022-12-04T02:00:48.476Z,2.40
2022-12-04T02:02:00.694Z,2.30
2022-12-04T02:03:02.579Z,2.30
2022-12-04T02:04:04.469Z,2.30
2022-12-04T02:05:09.019Z,2.30
2022-12-04T02:06:10.814Z,2.30
2022-12-04T02:07:12.758Z,2.30
2022-12-04T02:08:14.579Z,2.30
2022-12-04T02:09:19.366Z,2.30
2022-12-04T02:10:35.658Z,2.30
2022-12-04T02:11:51.430Z,2.30
2022-12-04T02:13:04.446Z,2.30
2022-12-04T02:14:36.582Z,2.30
2022-12-04T02:16:16.932Z,2.30
2022-12-04T02:17:44.806Z,2.30
2022-12-04T02:18:51.787Z,2.30
2022-12-04T02:20:20.915Z,2.40
2022-12-04T02:21:40.421Z,2.30
2022-12-04T02:22:51.405Z,2.30
2022-12-04T02:24:14.662Z,2.30
2022-12-04T02:25:34.722Z,2.30
2022-12-04T02:26:36.374Z,2.30
2022-12-04T02:27:41.062Z,2.30
2022-12-04T02:28:45.650Z,2.50
2022-12-04T02:29:55.950Z,2.20
2022-12-04T02:30:59.833Z,2.30
2022-12-04T02:32:27.006Z,2.30
2022-12-04T02:33:44.113Z,2.30
2022-12-04T02:35:23.334Z,2.30
2022-12-04T02:36:31.361Z,2.30
2022-12-04T02:37:40.168Z,2.30
2022-12-04T02:38:58.789Z,2.30
2022-12-04T02:40:14.837Z,2.30
2022-12-04T02:41:23.478Z,2.30
2022-12-04T02:42:42.918Z,2.30
2022-12-04T02:43:51.117Z,2.40
2022-12-04T02:44:58.704Z,2.40
2022-12-04T02:46:13.984Z,2.30
2022-12-04T02:47:19.553Z,2.40
2022-12-04T02:48:22.101Z,2.30
2022-12-04T02:49:30.918Z,2.30
2022-12-04T02:50:36.644Z,2.40
2022-12-04T02:51:40.546Z,2.40
2022-12-04T02:52:51.311Z,2.40
2022-12-04T02:54:01.378Z,2.40
2022-12-04T02:55:08.799Z,2.40
2022-12-04T02:56:16.307Z,2.30
2022-12-04T02:57:24.862Z,2.40
2022-12-04T02:58:42.381Z,2.40
2022-12-04T02:59:46.878Z,2.30
2022-12-04T03:00:50.592Z,2.30
2022-12-04T03:01:56.557Z,2.40
2022-12-04T03:03:17.802Z,2.40
2022-12-04T03:04:28.159Z,2.40
2022-12-04T03:05:47.809Z,2.50
2022-12-04T03:06:55.797Z,2.30
2022-12-04T03:08:02.095Z,2.40
2022-12-04T03:09:21.834Z,2.30
2022-12-04T03:10:41.613Z,2.40
2022-12-04T03:11:50.043Z,2.40
2022-12-04T03:13:07.697Z,2.30
2022-12-04T03:14:17.323Z,2.30
2022-12-04T03:15:30.918Z,2.30
2022-12-04T03:16:39.506Z,2.30
2022-12-04T03:17:50.392Z,2.30
2022-12-04T03:19:04.192Z,2.30
2022-12-04T03:20:10.927Z,2.40
2022-12-04T03:21:17.734Z,2.30
2022-12-04T03:22:22.061Z,2.40
2022-12-04T03:23:30.823Z,2.40
2022-12-04T03:24:44.786Z,2.40
2022-12-04T03:26:14.881Z,2.30
2022-12-04T03:27:29.247Z,2.40
2022-12-04T03:28:51.020Z,2.40
2022-12-04T03:30:04.901Z,2.30
2022-12-04T03:31:09.510Z,2.30
2022-12-04T03:32:41.442Z,2.40
2022-12-04T03:33:46.607Z,2.30
2022-12-04T03:35:05.764Z,2.30
2022-12-04T03:36:34.985Z,2.30
2022-12-04T03:37:47.213Z,2.40
2022-12-04T03:38:56.337Z,2.20
2022-12-04T03:40:15.616Z,2.30
2022-12-04T03:41:29.250Z,2.30
2022-12-04T03:42:38.127Z,2.30
2022-12-04T03:43:47.275Z,2.20
2022-12-04T03:45:00.304Z,2.30
2022-12-04T03:46:29.528Z,2.30
2022-12-04T03:47:55.341Z,2.20
2022-12-04T03:49:03.281Z,2.20
2022-12-04T03:50:05.035Z,2.30
2022-12-04T03:51:20.786Z,2.20
2022-12-04T03:52:44.634Z,2.30
2022-12-04T03:53:54.939Z,2.20
2022-12-04T03:55:06.867Z,2.30
2022-12-04T03:56:19.305Z,2.30
2022-12-04T03:57:28.297Z,2.30
2022-12-04T03:58:33.739Z,2.30
2022-12-04T03:59:43.537Z,2.30
2022-12-04T04:00:50.391Z,2.40
2022-12-04T04:01:55.398Z,2.30
2022-12-04T04:03:09.534Z,2.30
2022-12-04T04:04:16.828Z,2.30
2022-12-04T04:05:20.298Z,2.30
2022-12-04T04:06:36.811Z,2.30
2022-12-04T04:07:46.877Z,2.30
2022-12-04T04:08:52.563Z,2.30
2022-12-04T04:09:58.584Z,2.30
2022-12-04T04:11:05.290Z,2.30
2022-12-04T04:12:09.879Z,2.30
2022-12-04T04:13:35.596Z,2.30
2022-12-04T04:15:17.794Z,2.30
2022-12-04T04:16:40.783Z,2.30
2022-12-04T04:18:03.511Z,2.30
2022-12-04T04:19:25.677Z,2.30
2022-12-04T04:20:59.719Z,2.30
2022-12-04T04:22:23.221Z,2.30
2022-12-04T04:23:47.919Z,2.30
2022-12-04T04:25:02.185Z,2.30
2022-12-04T04:26:04.372Z,2.30
2022-12-04T04:27:06.427Z,2.30
2022-12-04T04:28:38.464Z,2.30
2022-12-04T04:29:41.709Z,2.30
2022-12-04T04:30:43.496Z,2.30
2022-12-04T04:31:59.466Z,2.30
2022-12-04T04:33:16.068Z,2.30
2022-12-04T04:34:32.982Z,2.30
2022-12-04T04:35:59.822Z,2.30
2022-12-04T04:37:06.517Z,2.30
2022-12-04T04:38:17.354Z,2.20
2022-12-04T04:39:34.647Z,2.30
2022-12-04T04:40:42.316Z,2.30
2022-12-04T04:42:03.514Z,2.20
2022-12-04T04:43:05.235Z,2.20
2022-12-04T04:44:24.802Z,2.20
2022-12-04T04:45:35.420Z,2.20
2022-12-04T04:46:45.188Z,2.20
2022-12-04T04:47:49.262Z,2.20
2022-12-04T04:48:54.425Z,2.30
2022-12-04T04:49:58.750Z,2.30
2022-12-04T04:51:03.620Z,2.30
2022-12-04T04:52:05.541Z,2.20
2022-12-04T04:53:28.402Z,2.20
2022-12-04T04:54:32.137Z,2.20
2022-12-04T04:55:34.807Z,2.20
2022-12-04T04:56:41.636Z,2.20
2022-12-04T04:57:43.481Z,2.20
2022-12-04T04:58:45.688Z,2.20
2022-12-04T04:59:47.430Z,2.20
2022-12-04T05:00:54.690Z,2.20
2022-12-04T05:01:57.304Z,2.20
2022-12-04T05:02:59.078Z,2.20
2022-12-04T05:04:01.680Z,2.20
2022-12-04T05:05:03.807Z,2.30
2022-12-04T05:06:06.534Z,2.30
2022-12-04T05:07:08.265Z,2.30
2022-12-04T05:08:10.077Z,2.30
2022-12-04T05:09:11.922Z,2.30
2022-12-04T05:10:14.125Z,2.30
2022-12-04T05:11:17.013Z,2.30
2022-12-04T05:12:18.733Z,2.30
2022-12-04T05:13:21.378Z,2.30
2022-12-04T05:14:23.127Z,2.30
2022-12-04T05:15:24.862Z,2.30
2022-12-04T05:16:26.639Z,2.30
2022-12-04T05:17:28.437Z,2.30
2022-12-04T05:18:31.057Z,2.30
2022-12-04T05:19:52.653Z,2.40
2022-12-04T05:20:54.949Z,2.30
2022-12-04T05:21:57.475Z,2.30
2022-12-04T05:22:59.510Z,2.30
2022-12-04T05:24:01.416Z,2.30
2022-12-04T05:25:04.438Z,2.30
2022-12-04T05:26:06.227Z,2.30
2022-12-04T05:27:07.962Z,2.30
2022-12-04T05:28:09.750Z,2.30
2022-12-04T05:29:11.416Z,2.30
2022-12-04T05:30:13.240Z,2.30
2022-12-04T05:31:15.189Z,2.30
2022-12-04T05:32:16.960Z,2.30
2022-12-04T05:33:18.665Z,2.30
2022-12-04T05:34:20.429Z,2.30
2022-12-04T05:35:22.156Z,2.30
2022-12-04T05:36:23.889Z,2.30
2022-12-04T05:37:25.857Z,2.20
2022-12-04T05:38:28.148Z,2.20
2022-12-04T05:39:29.929Z,2.20
2022-12-04T05:40:31.582Z,2.20
2022-12-04T05:41:33.259Z,2.20
2022-12-04T05:42:35.122Z,2.30
2022-12-04T05:43:37.713Z,2.20
2022-12-04T05:44:39.700Z,2.20
2022-12-04T05:45:41.393Z,2.20
2022-12-04T05:46:43.146Z,2.20
2022-12-04T05:47:45.078Z,2.20
2022-12-04T05:48:46.825Z,2.20
2022-12-04T05:49:48.598Z,2.30
2022-12-04T05:50:50.276Z,2.20
2022-12-04T05:51:52.141Z,2.20
2022-12-04T05:52:53.912Z,2.20
2022-12-04T05:53:55.756Z,2.20
2022-12-04T05:54:57.474Z,2.20
2022-12-04T05:56:01.575Z,2.20
2022-12-04T05:57:03.445Z,2.20
2022-12-04T05:58:05.157Z,2.20
2022-12-04T05:59:07.029Z,2.20
2022-12-04T06:00:09.157Z,2.20
2022-12-04T06:01:17.468Z,2.20
2022-12-04T06:02:19.626Z,2.20
2022-12-04T06:03:21.675Z,2.30
2022-12-04T06:04:23.467Z,2.20
2022-12-04T06:05:25.202Z,2.30
2022-12-04T06:06:27.222Z,2.20
2022-12-04T06:07:28.945Z,2.20
2022-12-04T06:08:32.056Z,2.20
2022-12-04T06:09:33.875Z,2.20
2022-12-04T06:10:35.616Z,2.20
2022-12-04T06:11:39.978Z,2.20
2022-12-04T06:12:41.719Z,2.30
2022-12-04T06:13:44.757Z,2.30
2022-12-04T06:14:46.562Z,2.20
2022-12-04T06:15:48.360Z,2.20
2022-12-04T06:16:50.201Z,2.20
2022-12-04T06:17:51.945Z,2.20
2022-12-04T06:18:56.482Z,2.30
2022-12-04T06:19:58.795Z,2.30
2022-12-04T06:21:00.734Z,2.20
2022-12-04T06:22:02.504Z,2.20
2022-12-04T06:23:04.242Z,2.30
2022-12-04T06:24:07.078Z,2.40
2022-12-04T06:25:09.406Z,2.30
2022-12-04T06:26:11.383Z,2.30
2022-12-04T06:27:28.916Z,2.20
2022-12-04T06:28:31.106Z,2.20
2022-12-04T06:29:32.974Z,2.20
2022-12-04T06:30:34.751Z,2.20
2022-12-04T06:31:38.095Z,2.20
2022-12-04T06:32:39.908Z,2.10
2022-12-04T06:33:42.005Z,2.20
2022-12-04T06:34:43.688Z,2.20
2022-12-04T06:35:45.460Z,2.20
2022-12-04T06:36:47.347Z,2.20
2022-12-04T06:37:49.051Z,2.20
2022-12-04T06:38:55.254Z,2.20
2022-12-04T06:39:57.200Z,2.20
2022-12-04T06:40:59.641Z,2.20
2022-12-04T06:42:01.374Z,2.20
2022-12-04T06:43:03.068Z,2.20
2022-12-04T06:44:04.933Z,2.20
2022-12-04T06:45:07.633Z,2.20
2022-12-04T06:46:12.451Z,2.20
2022-12-04T06:47:14.222Z,2.20
2022-12-04T06:48:16.075Z,2.30
2022-12-04T06:49:17.993Z,2.30
2022-12-04T06:50:19.695Z,2.20
2022-12-04T06:51:27.072Z,2.30
2022-12-04T06:52:28.820Z,2.30
2022-12-04T06:53:31.126Z,2.20
2022-12-04T06:54:32.868Z,2.30
2022-12-04T06:55:34.624Z,2.30
2022-12-04T06:56:36.380Z,2.40
2022-12-04T06:57:38.034Z,2.30
2022-12-04T06:58:40.413Z,2.40
2022-12-04T06:59:42.113Z,2.30
2022-12-04T07:00:43.888Z,2.30
2022-12-04T07:01:45.685Z,2.30
2022-12-04T07:02:47.555Z,2.30
2022-12-04T07:03:51.762Z,2.30
2022-12-04T07:04:57.136Z,2.30
2022-12-04T07:05:58.799Z,2.30
2022-12-04T07:07:00.634Z,2.30
2022-12-04T07:08:02.434Z,2.30
2022-12-04T07:09:13.494Z,2.30
2022-12-04T07:10:15.205Z,2.30
2022-12-04T07:11:16.970Z,2.40
2022-12-04T07:12:18.747Z,2.30
2022-12-04T07:13:20.477Z,2.30
2022-12-04T07:14:22.166Z,2.30
2022-12-04T07:15:23.924Z,2.30
2022-12-04T07:16:27.218Z,2.30
2022-12-04T07:17:29.004Z,2.30
2022-12-04T07:18:31.437Z,2.30
2022-12-04T07:19:33.156Z,2.30
2022-12-04T07:20:36.088Z,2.30
2022-12-04T07:21:38.080Z,2.30
2022-12-04T07:22:39.837Z,2.30
2022-12-04T07:23:41.600Z,2.30
2022-12-04T07:24:43.259Z,2.40
2022-12-04T07:25:44.962Z,2.40
2022-12-04T07:26:46.781Z,2.40
2022-12-04T07:27:48.538Z,2.40
2022-12-04T07:28:50.886Z,2.40
2022-12-04T07:29:53.126Z,2.30
2022-12-04T07:30:55.035Z,2.30
2022-12-04T07:31:56.853Z,2.40
2022-12-04T07:32:58.574Z,2.30
2022-12-04T07:34:00.310Z,2.40
2022-12-04T07:35:02.576Z,2.30
2022-12-04T07:36:07.059Z,2.40
2022-12-04T07:37:08.928Z,2.40
2022-12-04T07:38:10.716Z,2.40
2022-12-04T07:39:12.861Z,2.40
2022-12-04T07:40:14.949Z,2.40
2022-12-04T07:41:17.769Z,2.40
2022-12-04T07:42:24.072Z,2.30
2022-12-04T07:43:27.159Z,2.40
2022-12-04T07:44:31.997Z,2.40
2022-12-04T07:45:33.735Z,2.40
2022-12-04T07:46:36.048Z,2.40
2022-12-04T07:47:37.965Z,2.40
2022-12-04T07:48:40.124Z,2.40
2022-12-04T07:49:41.849Z,2.40
2022-12-04T07:50:43.931Z,2.40
2022-12-04T07:51:45.660Z,2.40
2022-12-04T07:52:47.370Z,2.40
2022-12-04T07:53:49.926Z,2.40
2022-12-04T07:54:51.724Z,2.40
2022-12-04T07:55:53.587Z,2.50
2022-12-04T07:56:55.423Z,2.50
2022-12-04T07:57:57.078Z,2.50
2022-12-04T07:59:00.148Z,2.50
2022-12-04T08:00:01.919Z,2.50
2022-12-04T08:01:13.015Z,2.50
2022-12-04T08:02:14.816Z,2.50
2022-12-04T08:03:16.532Z,2.50
2022-12-04T08:04:18.285Z,2.50
2022-12-04T08:05:20.183Z,2.50
2022-12-04T08:06:24.315Z,2.50
2022-12-04T08:07:25.997Z,2.50
2022-12-04T08:08:27.686Z,2.50
2022-12-04T08:09:29.437Z,2.50
2022-12-04T08:10:31.156Z,2.50
2022-12-04T08:11:33.483Z,2.50
2022-12-04T08:12:35.665Z,2.50
2022-12-04T08:13:37.368Z,2.50
2022-12-04T08:14:39.148Z,2.50
2022-12-04T08:15:40.886Z,2.50
2022-12-04T08:16:48.265Z,2.60
2022-12-04T08:17:52.817Z,2.50
2022-12-04T08:18:55.202Z,2.60
2022-12-04T08:19:57.272Z,2.50
2022-12-04T08:21:14.464Z,2.50
2022-12-04T08:22:20.360Z,2.60
2022-12-04T08:23:25.088Z,2.50
2022-12-04T08:24:26.807Z,2.60
2022-12-04T08:25:28.714Z,2.50
2022-12-04T08:26:31.258Z,2.60
2022-12-04T08:27:32.906Z,2.60
2022-12-04T08:28:35.212Z,2.60
2022-12-04T08:29:37.080Z,2.50
2022-12-04T08:30:38.841Z,2.60
2022-12-04T08:31:40.683Z,2.60
2022-12-04T08:32:42.452Z,2.60
2022-12-04T08:33:45.768Z,2.60
2022-12-04T08:34:54.045Z,2.60
2022-12-04T08:35:57.921Z,2.60
2022-12-04T08:36:59.705Z,2.60
2022-12-04T08:38:01.448Z,2.60
2022-12-04T08:39:03.494Z,2.60
2022-12-04T08:40:07.461Z,2.70
2022-12-04T08:41:12.440Z,2.70
2022-12-04T08:42:14.158Z,2.70
2022-12-04T08:43:15.819Z,2.70
2022-12-04T08:44:17.726Z,2.70
2022-12-04T08:45:19.467Z,2.70
2022-12-04T08:46:21.621Z,2.60
2022-12-04T08:47:23.382Z,2.70
2022-12-04T08:48:25.513Z,2.70
2022-12-04T08:49:27.284Z,2.70
2022-12-04T08:50:29.016Z,2.70
2022-12-04T08:51:34.641Z,2.70
2022-12-04T08:52:36.395Z,2.70
2022-12-04T08:53:38.142Z,2.70
2022-12-04T08:54:39.874Z,2.70
2022-12-04T08:55:41.747Z,2.70
2022-12-04T08:56:44.610Z,2.70
2022-12-04T08:57:46.290Z,2.70
2022-12-04T08:58:48.407Z,2.70
2022-12-04T08:59:50.099Z,2.70
2022-12-04T09:00:51.813Z,2.70
2022-12-04T09:01:54.053Z,2.70
2022-12-04T09:02:55.894Z,2.70
2022-12-04T09:03:58.134Z,2.70
2022-12-04T09:04:59.977Z,2.80
2022-12-04T09:06:02.895Z,2.80
2022-12-04T09:07:04.792Z,2.80
2022-12-04T09:08:06.706Z,2.80
2022-12-04T09:09:08.475Z,2.80
2022-12-04T09:10:10.823Z,2.80
2022-12-04T09:11:15.438Z,2.80
2022-12-04T09:12:17.140Z,2.80
2022-12-04T09:13:18.830Z,2.80
2022-12-04T09:14:25.646Z,2.80
2022-12-04T09:15:27.462Z,2.80
2022-12-04T09:16:29.397Z,2.80
2022-12-04T09:17:31.239Z,2.80
2022-12-04T09:18:33.575Z,2.70
2022-12-04T09:19:36.055Z,2.80
2022-12-04T09:20:39.083Z,2.80
2022-12-04T09:21:40.877Z,2.80
2022-12-04T09:23:02.961Z,2.80
2022-12-04T09:24:04.470Z,2.80
2022-12-04T09:25:06.631Z,2.80
2022-12-04T09:26:21.588Z,2.90
2022-12-04T09:27:23.302Z,2.80
2022-12-04T09:28:25.084Z,2.80
2022-12-04T09:29:26.800Z,2.80
2022-12-04T09:30:28.490Z,2.80
2022-12-04T09:31:30.984Z,2.80
2022-12-04T09:32:32.686Z,2.80
2022-12-04T09:33:34.455Z,2.80
2022-12-04T09:34:36.371Z,2.90
2022-12-04T09:35:40.970Z,2.90
2022-12-04T09:36:42.712Z,2.90
2022-12-04T09:37:44.484Z,2.90
2022-12-04T09:38:49.127Z,2.90
2022-12-04T09:39:50.959Z,2.90
2022-12-04T09:41:07.470Z,2.90
2022-12-04T09:42:17.815Z,2.90
2022-12-04T09:43:40.339Z,2.90
2022-12-04T09:45:02.095Z,2.90
2022-12-04T09:46:10.318Z,2.90
2022-12-04T09:47:18.430Z,2.90
2022-12-04T09:48:22.448Z,3.00
2022-12-04T09:49:27.593Z,3.00
2022-12-04T09:50:39.146Z,2.90
2022-12-04T09:51:42.217Z,2.90
2022-12-04T09:52:57.535Z,2.90
2022-12-04T09:54:17.871Z,2.90
2022-12-04T09:55:47.536Z,2.90
2022-12-04T09:56:58.832Z,2.90
2022-12-04T09:58:03.264Z,2.80
2022-12-04T09:59:22.398Z,2.90
2022-12-04T10:00:24.299Z,2.90
2022-12-04T10:01:41.716Z,2.90
2022-12-04T10:02:49.888Z,2.80
2022-12-04T10:03:54.237Z,2.80
2022-12-04T10:04:56.653Z,2.90
2022-12-04T10:06:06.949Z,2.90
2022-12-04T10:07:19.927Z,2.90
2022-12-04T10:08:28.568Z,2.90
2022-12-04T10:09:33.353Z,2.90
2022-12-04T10:11:06.479Z,2.90
2022-12-04T10:12:08.203Z,2.90
2022-12-04T10:13:41.797Z,2.80
2022-12-04T10:15:15.081Z,2.90
2022-12-04T10:16:24.091Z,2.90
2022-12-04T10:17:38.250Z,2.90
2022-12-04T10:19:07.891Z,2.90
2022-12-04T10:20:43.146Z,2.90
2022-12-04T10:22:10.243Z,2.90
2022-12-04T10:23:30.860Z,2.90
2022-12-04T10:24:51.684Z,2.80
2022-12-04T10:25:55.224Z,2.80
2022-12-04T10:26:59.657Z,2.80
2022-12-04T10:28:23.258Z,2.80
2022-12-04T10:29:34.694Z,2.80
2022-12-04T10:30:41.121Z,2.80
2022-12-04T10:31:46.897Z,2.80
2022-12-04T10:32:55.390Z,2.80
2022-12-04T10:34:05.368Z,2.80
2022-12-04T10:35:26.820Z,2.80
2022-12-04T10:36:32.787Z,2.70
2022-12-04T10:37:41.027Z,2.80
2022-12-04T10:38:53.814Z,2.70
2022-12-04T10:40:07.096Z,2.80
2022-12-04T10:41:18.151Z,2.80
2022-12-04T10:42:38.648Z,2.80
2022-12-04T10:43:48.826Z,2.80
2022-12-04T10:44:51.586Z,2.80
2022-12-04T10:45:53.330Z,2.80
2022-12-04T10:47:03.006Z,2.80
2022-12-04T10:48:08.002Z,2.80
2022-12-04T10:49:26.990Z,2.80
2022-12-04T10:50:28.832Z,2.80
2022-12-04T10:51:38.901Z,2.80
2022-12-04T10:52:40.706Z,2.80
2022-12-04T10:53:42.561Z,2.80
2022-12-04T10:54:52.171Z,2.80
2022-12-04T10:55:53.921Z,2.80
2022-12-04T10:57:01.532Z,2.80
2022-12-04T10:58:03.319Z,2.80
2022-12-04T10:59:06.166Z,2.90
2022-12-04T11:00:31.300Z,2.90
2022-12-04T11:01:35.377Z,2.80
2022-12-04T11:02:39.482Z,2.90
2022-12-04T11:03:44.138Z,2.80
2022-12-04T11:05:07.260Z,2.80
2022-12-04T11:06:10.535Z,2.90
2022-12-04T11:07:25.019Z,2.80
2022-12-04T11:08:37.818Z,3.00
2022-12-04T11:09:41.131Z,2.90
2022-12-04T11:10:43.825Z,2.90
2022-12-04T11:11:45.555Z,2.90
2022-12-04T11:13:17.570Z,2.90
2022-12-04T11:14:23.055Z,2.90
2022-12-04T11:15:25.140Z,3.00
2022-12-04T11:16:36.508Z,3.00
2022-12-04T11:17:38.267Z,3.00
2022-12-04T11:18:50.503Z,3.00
2022-12-04T11:20:16.414Z,3.10
2022-12-04T11:21:26.003Z,3.00
2022-12-04T11:22:27.921Z,3.00
2022-12-04T11:23:33.737Z,2.90
2022-12-04T11:24:37.608Z,3.00
2022-12-04T11:25:47.426Z,3.00
2022-12-04T11:26:50.549Z,3.00
2022-12-04T11:27:59.463Z,3.00
2022-12-04T11:29:02.812Z,2.90
2022-12-04T11:30:11.010Z,2.90
2022-12-04T11:31:20.325Z,2.90
2022-12-04T11:32:29.187Z,2.90
2022-12-04T11:33:53.422Z,2.90
2022-12-04T11:34:59.439Z,2.90
2022-12-04T11:36:06.233Z,3.00
2022-12-04T11:37:21.058Z,2.90
2022-12-04T11:38:26.866Z,2.80
2022-12-04T11:39:38.951Z,2.90
2022-12-04T11:40:47.929Z,2.80
2022-12-04T11:42:01.169Z,2.80
2022-12-04T11:43:17.655Z,2.90
2022-12-04T11:44:24.613Z,2.80
2022-12-04T11:45:26.298Z,2.80
2022-12-04T11:46:31.040Z,2.70
2022-12-04T11:47:33.458Z,2.80
2022-12-04T11:48:43.883Z,2.90
2022-12-04T11:49:57.801Z,2.80
2022-12-04T11:51:27.048Z,2.80
2022-12-04T11:52:50.543Z,2.80
2022-12-04T11:54:02.107Z,2.80
2022-12-04T11:55:13.126Z,2.80
2022-12-04T11:56:31.549Z,2.80
2022-12-04T11:58:11.828Z,2.80
2022-12-04T11:59:22.298Z,2.80
2022-12-04T12:00:24.323Z,2.90
2022-12-04T12:01:58.909Z,2.90
2022-12-04T12:03:13.424Z,2.90
2022-12-04T12:05:00.900Z,2.80
2022-12-04T12:06:29.891Z,2.80
2022-12-04T12:07:52.041Z,2.80
2022-12-04T12:09:10.041Z,2.80
2022-12-04T12:10:32.116Z,2.80
2022-12-04T12:11:44.766Z,2.80
2022-12-04T12:13:19.631Z,2.80
2022-12-04T12:14:57.932Z,2.80
2022-12-04T12:16:18.233Z,2.80
2022-12-04T12:17:24.702Z,2.80
2022-12-04T12:18:53.681Z,2.80
2022-12-04T12:20:24.518Z,2.80
2022-12-04T12:22:03.451Z,2.80
2022-12-04T12:23:24.188Z,2.90
2022-12-04T12:24:57.566Z,2.90
2022-12-04T12:26:14.878Z,3.00
2022-12-04T12:27:32.706Z,2.90
2022-12-04T12:29:21.273Z,2.90
2022-12-04T12:30:25.429Z,2.90
2022-12-04T12:31:32.788Z,3.00
2022-12-04T12:32:46.896Z,2.90
2022-12-04T12:33:57.310Z,2.90
2022-12-04T12:35:00.577Z,2.90
2022-12-04T12:36:10.493Z,2.90
2022-12-04T12:37:33.851Z,2.90
2022-12-04T12:38:56.194Z,3.00
2022-12-04T12:40:25.560Z,3.00
2022-12-04T12:41:35.123Z,3.00
2022-12-04T12:42:58.036Z,3.00
2022-12-04T12:44:05.788Z,3.10
2022-12-04T12:45:38.933Z,3.20
2022-12-04T12:46:52.965Z,3.10
2022-12-04T12:47:59.347Z,3.10
2022-12-04T12:49:25.487Z,3.10
2022-12-04T12:50:49.382Z,3.10
2022-12-04T12:52:06.954Z,3.10
2022-12-04T12:53:16.425Z,3.10
2022-12-04T12:54:40.940Z,3.10
2022-12-04T12:55:47.464Z,3.10
2022-12-04T12:56:53.768Z,3.10
2022-12-04T12:57:59.396Z,3.00
2022-12-04T12:59:05.856Z,3.10
2022-12-04T13:00:15.233Z,3.10
2022-12-04T13:01:49.407Z,3.10
2022-12-04T13:03:01.649Z,3.10
2022-12-04T13:04:08.760Z,3.10
2022-12-04T13:05:16.103Z,3.10
2022-12-04T13:06:34.197Z,3.10
2022-12-04T13:08:26.456Z,3.10
2022-12-04T13:09:32.757Z,3.10
2022-12-04T13:11:06.490Z,3.10
2022-12-04T13:12:14.652Z,3.10
2022-12-04T13:13:27.314Z,3.10
2022-12-04T13:14:29.107Z,3.10
2022-12-04T13:15:52.073Z,3.10
2022-12-04T13:17:02.208Z,3.20
2022-12-04T13:18:06.804Z,3.10
2022-12-04T13:19:32.643Z,3.20
2022-12-04T13:20:43.644Z,3.20
2022-12-04T13:21:56.875Z,3.10
2022-12-04T13:23:16.585Z,3.10
2022-12-04T13:24:42.447Z,3.20
2022-12-04T13:26:07.230Z,3.20
2022-12-04T13:27:20.816Z,3.20
2022-12-04T13:28:41.465Z,3.10
2022-12-04T13:29:51.776Z,3.20
2022-12-04T13:31:07.973Z,3.10
2022-12-04T13:32:46.711Z,3.10
2022-12-04T13:33:59.798Z,3.10
2022-12-04T13:35:19.355Z,3.20
2022-12-04T13:36:38.046Z,3.20
2022-12-04T13:38:02.299Z,3.20
2022-12-04T13:39:03.962Z,3.20
2022-12-04T13:40:14.996Z,3.10
2022-12-04T13:41:22.773Z,3.10
2022-12-04T13:42:26.707Z,3.10
2022-12-04T13:43:41.159Z,3.10
2022-12-04T13:44:43.032Z,3.10
2022-12-04T13:45:47.096Z,3.10
2022-12-04T13:47:04.551Z,3.10
2022-12-04T13:48:06.538Z,3.10
2022-12-04T13:49:20.253Z,3.10
2022-12-04T13:50:27.122Z,3.10
2022-12-04T13:51:38.586Z,3.10
2022-12-04T13:52:42.492Z,3.10
2022-12-04T13:53:44.333Z,3.10
2022-12-04T13:54:59.891Z,3.10
2022-12-04T13:56:07.501Z,3.10
2022-12-04T13:57:16.657Z,3.00
2022-12-04T13:58:18.306Z,3.00
2022-12-04T13:59:24.640Z,3.00
2022-12-04T14:00:31.492Z,3.00
2022-12-04T14:01:40.307Z,3.00
2022-12-04T14:02:50.590Z,3.00
2022-12-04T14:03:57.520Z,2.90
2022-12-04T14:05:06.730Z,2.90
2022-12-04T14:06:24.359Z,3.00
2022-12-04T14:07:41.804Z,2.90
2022-12-04T14:08:44.032Z,3.00
2022-12-04T14:09:53.189Z,3.00
2022-12-04T14:11:16.523Z,2.90
2022-12-04T14:12:18.862Z,3.00
2022-12-04T14:13:24.773Z,2.90
2022-12-04T14:14:51.718Z,3.00
2022-12-04T14:16:16.254Z,2.90
2022-12-04T14:17:40.022Z,2.90
2022-12-04T14:18:51.024Z,2.90
2022-12-04T14:20:00.762Z,2.90
2022-12-04T14:21:05.803Z,2.90
2022-12-04T14:22:34.617Z,2.90
2022-12-04T14:23:43.790Z,2.90
2022-12-04T14:24:45.527Z,2.90
2022-12-04T14:25:47.248Z,2.90
2022-12-04T14:28:14.106Z,2.90
2022-12-04T14:29:41.709Z,2.90
2022-12-04T14:30:45.244Z,2.90
2022-12-04T14:31:47.041Z,3.00
2022-12-04T14:32:52.627Z,3.00
2022-12-04T14:34:18.604Z,3.00
2022-12-04T14:35:26.054Z,3.00
2022-12-04T14:36:31.762Z,3.00
2022-12-04T14:37:37.770Z,3.00
2022-12-04T14:38:39.915Z,3.20
2022-12-04T14:39:46.860Z,3.00
2022-12-04T14:40:51.196Z,3.00
2022-12-04T14:42:06.577Z,3.10
2022-12-04T14:43:18.667Z,3.10
2022-12-04T14:44:29.560Z,3.10
2022-12-04T14:45:40.127Z,3.10
2022-12-04T14:46:47.591Z,3.10
2022-12-04T14:47:57.154Z,3.10
2022-12-04T14:49:21.171Z,3.20
2022-12-04T14:50:34.728Z,3.20
2022-12-04T14:51:44.727Z,3.20
2022-12-04T14:53:19.070Z,3.30
2022-12-04T14:54:44.969Z,3.10
2022-12-04T14:55:52.691Z,3.20
2022-12-04T14:57:23.006Z,3.10
2022-12-04T14:58:34.390Z,3.20
2022-12-04T14:59:45.932Z,3.20
2022-12-04T15:00:55.258Z,3.20
2022-12-04T15:01:56.946Z,3.20
2022-12-04T15:03:00.813Z,3.20
2022-12-04T15:04:13.680Z,3.20
2022-12-04T15:05:24.468Z,3.20
2022-12-04T15:06:31.747Z,3.20
2022-12-04T15:07:33.828Z,3.20
2022-12-04T15:08:35.854Z,3.20
2022-12-04T15:09:56.239Z,3.10